createdAt,value
2022-09-14T00:10:05.539Z,13.00
2022-09-14T00:20:12.335Z,12.80
2022-09-14T00:30:18.152Z,11.90
2022-09-14T00:40:23.843Z,12.90
2022-09-14T00:50:29.641Z,12.70
2022-09-14T01:00:35.447Z,13.20
2022-09-14T01:10:54.199Z,12.80
2022-09-14T01:21:05.028Z,14.40
2022-09-14T01:31:18.484Z,12.10
2022-09-14T01:41:30.214Z,11.50
2022-09-14T01:51:40.325Z,11.50
2022-09-14T02:01:53.212Z,11.50
2022-09-14T02:12:00.906Z,11.30
2022-09-14T02:22:06.746Z,12.10
2022-09-14T02:32:22.337Z,14.30
2022-09-14T02:42:40.648Z,14.40
2022-09-14T02:52:53.523Z,15.30
2022-09-14T03:02:59.580Z,17.30
2022-09-14T03:13:05.846Z,18.20
2022-09-14T03:23:12.138Z,18.80
2022-09-14T03:33:17.987Z,22.70
2022-09-14T03:43:23.597Z,36.50
2022-09-14T03:53:29.266Z,38.70
2022-09-14T04:03:35.694Z,31.80
2022-09-14T04:13:41.908Z,26.50
2022-09-14T04:34:14.769Z,17.10
2022-09-14T04:44:20.577Z,15.70
2022-09-14T04:54:26.120Z,16.80
2022-09-14T05:04:31.862Z,18.90
2022-09-14T05:14:37.683Z,19.50
2022-09-14T05:24:43.381Z,19.30
2022-09-14T05:34:49.004Z,21.70
2022-09-14T05:44:54.721Z,17.90
2022-09-14T05:55:00.510Z,16.70
2022-09-14T06:05:06.826Z,13.60
2022-09-14T06:15:13.530Z,14.10
2022-09-14T06:25:19.125Z,15.30
2022-09-14T06:35:24.735Z,14.90
2022-09-14T06:45:31.223Z,12.60
2022-09-14T06:55:36.905Z,12.20
2022-09-14T07:05:42.571Z,11.00
2022-09-14T07:15:52.579Z,9.70
2022-09-14T07:26:05.187Z,8.60
2022-09-14T07:36:13.116Z,7.60
2022-09-14T07:46:19.130Z,6.30
2022-09-14T07:56:25.939Z,6.80
2022-09-14T08:06:32.105Z,5.30
2022-09-14T08:16:38.895Z,4.70
2022-09-14T08:26:44.759Z,4.70
2022-09-14T08:36:51.041Z,4.10
2022-09-14T08:47:02.943Z,4.00
2022-09-14T08:57:16.882Z,4.10
2022-09-14T09:07:32.754Z,4.20
2022-09-14T09:17:43.644Z,3.00
2022-09-14T09:27:49.450Z,2.00
2022-09-14T09:37:55.181Z,3.30
2022-09-14T09:48:09.511Z,1.50
2022-09-14T09:58:29.380Z,1.90
2022-09-14T10:08:40.755Z,2.00
2022-09-14T10:18:49.591Z,1.50
2022-09-14T10:28:55.818Z,1.70
2022-09-14T10:39:16.231Z,1.40
2022-09-14T10:49:38.008Z,1.90
2022-09-14T10:59:53.610Z,1.20
2022-09-14T11:10:06.715Z,2.10
2022-09-14T11:20:25.791Z,1.20
2022-09-14T11:30:39.732Z,1.20
2022-09-14T11:40:48.328Z,1.50
2022-09-14T11:51:01.134Z,2.10
2022-09-14T12:01:28.849Z,1.40
2022-09-14T12:11:37.152Z,1.90
2022-09-14T12:21:43.634Z,1.60
2022-09-14T12:32:23.249Z,1.50
2022-09-14T12:42:32.201Z,1.30
2022-09-14T12:52:46.064Z,1.20
2022-09-14T13:03:07.053Z,1.90
2022-09-14T13:13:26.938Z,1.40
2022-09-14T13:23:37.907Z,1.40
2022-09-14T13:33:50.015Z,1.30
2022-09-14T13:43:58.003Z,2.00
2022-09-14T14:04:28.398Z,1.40
2022-09-14T14:14:34.204Z,1.40
2022-09-14T14:25:02.048Z,1.20
2022-09-14T14:35:15.660Z,1.10
2022-09-14T14:45:26.470Z,1.10
2022-09-14T14:55:33.167Z,0.90
2022-09-14T15:05:42.233Z,1.20
2022-09-14T15:15:48.034Z,1.10
2022-09-14T15:25:55.059Z,1.20
2022-09-14T15:36:01.270Z,0.90
2022-09-14T15:46:07.105Z,1.10
2022-09-14T15:56:14.308Z,1.30
2022-09-14T16:06:19.898Z,2.10
2022-09-14T16:16:26.042Z,1.10
2022-09-14T16:26:33.912Z,2.00
2022-09-14T16:36:41.780Z,1.40
2022-09-14T16:46:48.827Z,1.70
2022-09-14T16:56:57.078Z,1.90
2022-09-14T17:07:02.900Z,1.90
2022-09-14T17:17:08.975Z,2.00
2022-09-14T17:27:14.625Z,4.90
2022-09-14T17:37:20.325Z,4.80
2022-09-14T17:47:26.548Z,6.00
2022-09-14T17:57:32.141Z,4.50
2022-09-14T18:07:37.937Z,4.20
2022-09-14T18:17:44.994Z,3.10
2022-09-14T18:27:50.778Z,4.10
2022-09-14T18:37:56.991Z,5.70
2022-09-14T18:48:03.509Z,3.30
2022-09-14T18:58:09.549Z,9.50
2022-09-14T19:08:15.220Z,5.90
2022-09-14T19:18:21.031Z,11.70
2022-09-14T19:28:26.809Z,12.80
2022-09-14T19:38:32.831Z,12.10
2022-09-14T19:48:39.159Z,11.10
2022-09-14T19:58:46.868Z,11.50
2022-09-14T20:08:54.555Z,11.00
2022-09-14T20:19:06.082Z,11.60
2022-09-14T20:29:11.726Z,12.90
2022-09-14T20:39:17.846Z,10.90
2022-09-14T20:49:24.659Z,11.10
2022-09-14T20:59:30.622Z,11.90
2022-09-14T21:09:37.209Z,12.00
2022-09-14T21:19:43.001Z,9.80
2022-09-14T21:29:50.417Z,8.60
2022-09-14T21:39:57.774Z,12.10
2022-09-14T21:50:03.657Z,9.20
2022-09-14T22:00:12.553Z,9.20
2022-09-14T22:10:19.429Z,9.40
2022-09-14T22:20:25.172Z,8.70
2022-09-14T22:30:30.833Z,10.40
2022-09-14T22:40:36.664Z,9.80
2022-09-14T22:50:43.977Z,8.40
2022-09-14T23:00:50.055Z,9.50
2022-09-14T23:10:56.170Z,9.90
2022-09-14T23:21:05.437Z,8.90
2022-09-14T23:31:11.157Z,10.00
2022-09-14T23:41:16.952Z,10.40
2022-09-14T23:51:22.756Z,10.90
